Time;durP1;ratioP1;P1;durP2;ratioP2;P2;SDS_P1;SDS_P2;PMS_P1;PMS_P2;Temp;Humidity;BMP_temperature;BMP_pressure;BME280_temperature;BME280_humidity;BME280_pressure;Samples;Min_cycle;Max_cycle;Signal;HPM_P1;HPM_P2
2021/12/29 00:00:51;;;;;;;5.75;1.27;;;13.10;75.30;;;;;;2416835;52;20940;-77
2021/12/29 00:03:18;;;;;;;6.22;0.93;;;13.10;75.10;;;;;;2355207;53;21027;-77
2021/12/29 00:05:45;;;;;;;5.43;1.33;;;13.00;74.90;;;;;;2366779;53;20922;-77
2021/12/29 00:08:11;;;;;;;5.25;0.95;;;13.00;74.90;;;;;;2486779;52;20954;-78
2021/12/29 00:10:38;;;;;;;7.37;1.37;;;13.10;75.30;;;;;;2389520;52;20965;-79
2021/12/29 00:13:05;;;;;;;6.78;1.20;;;13.00;75.10;;;;;;2367368;53;21010;-76
2021/12/29 00:15:31;;;;;;;4.70;1.20;;;13.00;75.20;;;;;;2344696;53;21254;-77
2021/12/29 00:17:58;;;;;;;5.72;0.93;;;13.00;75.20;;;;;;2361136;53;21511;-78
2021/12/29 00:20:28;;;;;;;9.00;1.42;;;13.00;75.30;;;;;;2339622;54;21036;-77
2021/12/29 00:22:58;;;;;;;3.95;0.80;;;13.00;75.20;;;;;;2348013;54;20958;-77
2021/12/29 00:25:25;;;;;;;5.53;1.00;;;13.10;75.20;;;;;;2372849;53;21473;-78
2021/12/29 00:27:54;;;;;;;6.25;1.02;;;13.00;75.30;;;;;;2365990;53;21366;-76
2021/12/29 00:30:20;;;;;;;6.97;1.27;;;13.10;75.50;;;;;;2411916;52;20938;-78
2021/12/29 00:32:47;;;;;;;6.57;1.00;;;13.00;75.10;;;;;;2373370;53;20970;-79
2021/12/29 00:35:14;;;;;;;5.35;0.75;;;13.10;75.30;;;;;;2430351;52;21088;-77
2021/12/29 00:37:41;;;;;;;5.82;0.85;;;13.10;75.50;;;;;;2448734;53;21018;-77
2021/12/29 00:40:09;;;;;;;3.65;0.62;;;13.10;75.40;;;;;;2360126;53;20956;-78
2021/12/29 00:42:35;;;;;;;4.95;1.12;;;13.10;75.30;;;;;;2373314;53;21055;-78
2021/12/29 00:45:02;;;;;;;5.70;1.40;;;13.20;75.60;;;;;;2472478;52;20930;-77
2021/12/29 00:47:31;;;;;;;7.75;1.20;;;13.10;75.40;;;;;;2470926;52;21372;-80
2021/12/29 00:49:59;;;;;;;4.53;1.27;;;13.10;75.30;;;;;;2364656;52;20992;-78
2021/12/29 00:52:25;;;;;;;6.47;1.05;;;13.10;75.30;;;;;;2354969;53;20973;-78
2021/12/29 00:54:51;;;;;;;4.85;0.95;;;13.10;75.30;;;;;;2368145;53;20949;-77
2021/12/29 00:57:17;;;;;;;5.65;0.95;;;13.10;75.50;;;;;;2599533;52;20974;-77
2021/12/29 00:59:45;;;;;;;4.40;0.77;;;13.10;75.40;;;;;;2369146;53;20954;-77
2021/12/29 01:02:12;;;;;;;6.90;0.98;;;13.10;75.40;;;;;;2368709;53;21065;-77
2021/12/29 01:04:38;;;;;;;4.68;0.60;;;13.10;75.40;;;;;;2362109;53;21935;-77
2021/12/29 01:07:04;;;;;;;6.40;1.00;;;13.10;75.30;;;;;;2389077;53;20938;-77
2021/12/29 01:09:31;;;;;;;3.33;0.70;;;13.10;75.20;;;;;;2375188;52;21808;-78
2021/12/29 01:11:59;;;;;;;4.62;0.95;;;13.10;75.30;;;;;;2325737;54;20974;-77
2021/12/29 01:14:26;;;;;;;5.37;1.10;;;13.20;75.40;;;;;;2452043;52;20922;-77
2021/12/29 01:16:53;;;;;;;3.55;0.70;;;13.20;75.50;;;;;;2361003;53;20948;-77
2021/12/29 01:19:22;;;;;;;4.22;0.90;;;13.20;75.50;;;;;;2367393;53;21030;-78
2021/12/29 01:21:50;;;;;;;5.95;1.02;;;13.20;75.30;;;;;;2340384;53;21019;-77
2021/12/29 01:24:16;;;;;;;3.53;0.70;;;13.20;75.40;;;;;;2429104;53;21501;-76
2021/12/29 01:26:43;;;;;;;3.80;0.70;;;13.20;75.40;;;;;;2345634;52;21751;-77
2021/12/29 01:29:13;;;;;;;4.85;0.90;;;13.20;75.50;;;;;;2567449;52;21000;-76
2021/12/29 01:31:42;;;;;;;4.47;0.90;;;13.20;75.50;;;;;;2349476;53;20928;-78
2021/12/29 01:34:09;;;;;;;4.03;0.85;;;13.20;76.00;;;;;;2613532;52;20914;-77
2021/12/29 01:36:36;;;;;;;4.78;1.00;;;13.20;75.50;;;;;;2433895;52;21815;-77
2021/12/29 01:39:04;;;;;;;3.20;1.02;;;13.20;75.40;;;;;;2368123;53;21489;-76
2021/12/29 01:41:30;;;;;;;4.80;0.77;;;13.30;75.20;;;;;;2529143;52;21479;-77
2021/12/29 01:43:59;;;;;;;6.10;1.10;;;13.30;75.20;;;;;;2369888;53;21819;-78
2021/12/29 01:46:29;;;;;;;4.30;1.40;;;13.30;75.00;;;;;;2355968;53;21015;-78
2021/12/29 01:48:55;;;;;;;6.30;1.05;;;13.30;75.10;;;;;;2361242;53;22186;-78
2021/12/29 01:51:22;;;;;;;8.80;1.10;;;13.30;75.00;;;;;;2453846;52;20947;-76
2021/12/29 01:54:02;;;;;;;4.50;1.05;;;13.20;74.70;;;;;;2370030;53;20946;-78
2021/12/29 01:56:30;;;;;;;6.03;1.00;;;13.20;74.60;;;;;;2380535;52;21324;-78
2021/12/29 01:58:57;;;;;;;4.12;0.90;;;13.20;74.60;;;;;;2370438;53;20929;-77
2021/12/29 02:01:23;;;;;;;5.95;0.85;;;13.20;74.60;;;;;;2552078;52;20922;-78
2021/12/29 02:03:52;;;;;;;5.18;1.00;;;13.20;74.70;;;;;;2410530;52;21785;-78
2021/12/29 02:06:18;;;;;;;5.87;0.90;;;13.20;74.90;;;;;;2388145;52;20922;-78
2021/12/29 02:08:45;;;;;;;5.50;0.90;;;13.20;74.80;;;;;;2347271;53;20999;-78
2021/12/29 02:11:11;;;;;;;5.75;0.93;;;13.10;74.60;;;;;;2369392;53;21037;-77
2021/12/29 02:13:38;;;;;;;4.72;0.90;;;13.10;74.70;;;;;;2502669;53;20958;-77
2021/12/29 02:16:06;;;;;;;4.65;1.02;;;13.10;74.70;;;;;;2349638;53;20932;-77
2021/12/29 02:18:37;;;;;;;5.72;1.10;;;13.10;74.70;;;;;;2343539;54;21101;-77
2021/12/29 02:21:04;;;;;;;5.15;1.30;;;13.10;74.80;;;;;;2371346;53;21005;-77
2021/12/29 02:23:45;;;;;;;4.40;1.25;;;13.10;75.10;;;;;;2367449;53;20969;-79
2021/12/29 02:26:14;;;;;;;5.82;0.98;;;13.10;75.10;;;;;;2464805;52;20954;-78
2021/12/29 02:28:41;;;;;;;5.35;1.05;;;13.10;74.80;;;;;;2346180;54;20994;-78
2021/12/29 02:31:07;;;;;;;5.12;0.93;;;13.10;74.80;;;;;;2369139;53;20985;-76
2021/12/29 02:33:36;;;;;;;5.03;1.02;;;13.00;74.70;;;;;;2369977;53;20934;-76
2021/12/29 02:36:03;;;;;;;3.87;1.10;;;13.00;74.70;;;;;;2361851;52;21487;-78
2021/12/29 02:38:35;;;;;;;4.47;0.90;;;13.10;74.80;;;;;;2344872;53;21420;-77
2021/12/29 02:41:04;;;;;;;5.60;1.63;;;13.00;74.40;;;;;;2365309;53;20979;-76
2021/12/29 02:43:32;;;;;;;6.53;1.10;;;13.00;74.60;;;;;;2386715;53;20926;-76
2021/12/29 02:45:59;;;;;;;6.10;0.98;;;13.00;74.90;;;;;;2348953;53;21045;-78
2021/12/29 02:48:29;;;;;;;4.50;0.90;;;13.00;74.90;;;;;;2536074;52;21550;-77
2021/12/29 02:50:56;;;;;;;4.03;0.82;;;13.00;74.80;;;;;;2340898;53;20962;-79
2021/12/29 02:53:24;;;;;;;4.87;1.27;;;13.00;75.10;;;;;;2406528;53;20934;-78
2021/12/29 02:55:52;;;;;;;5.07;1.45;;;13.00;74.90;;;;;;2344340;53;20933;-77
2021/12/29 02:58:18;;;;;;;6.32;0.90;;;13.00;75.10;;;;;;2429942;52;20958;-76
2021/12/29 03:00:44;;;;;;;5.68;1.00;;;13.00;75.00;;;;;;2351131;53;20943;-77
2021/12/29 03:03:15;;;;;;;6.85;1.20;;;13.00;75.10;;;;;;2377818;53;21818;-78
2021/12/29 03:05:44;;;;;;;5.90;1.10;;;13.00;75.00;;;;;;2412129;53;20954;-76
2021/12/29 03:08:14;;;;;;;6.03;1.27;;;13.00;75.20;;;;;;2351025;53;20951;-76
2021/12/29 03:10:40;;;;;;;7.05;0.93;;;13.00;75.00;;;;;;2389276;53;20999;-78
2021/12/29 03:13:07;;;;;;;5.75;1.05;;;13.00;75.20;;;;;;2347556;53;20964;-78
2021/12/29 03:15:35;;;;;;;5.60;1.40;;;13.00;75.20;;;;;;2489135;53;20906;-77
2021/12/29 03:18:02;;;;;;;6.03;1.48;;;13.00;74.90;;;;;;2402490;52;20938;-77
2021/12/29 03:20:28;;;;;;;7.07;1.30;;;13.00;75.10;;;;;;2347994;53;21019;-77
2021/12/29 03:22:54;;;;;;;5.97;1.42;;;13.00;75.30;;;;;;2501838;52;21001;-77
2021/12/29 03:25:22;;;;;;;9.18;1.20;;;13.00;75.30;;;;;;2422068;53;21000;-77
2021/12/29 03:27:49;;;;;;;6.28;1.12;;;13.10;75.40;;;;;;2458198;53;20952;-77
2021/12/29 03:30:15;;;;;;;7.78;1.20;;;13.00;75.30;;;;;;2365355;53;21030;-77
2021/12/29 03:32:49;;;;;;;6.25;1.37;;;13.00;75.10;;;;;;2502927;52;20979;-78
2021/12/29 03:35:15;;;;;;;7.68;1.33;;;13.00;75.20;;;;;;2560167;52;20946;-77
2021/12/29 03:37:41;;;;;;;7.55;1.45;;;13.00;75.20;;;;;;2346604;53;20930;-77
2021/12/29 03:40:09;;;;;;;9.15;1.50;;;13.00;75.20;;;;;;2512961;53;21481;-78
2021/12/29 03:42:38;;;;;;;7.95;1.37;;;13.00;75.20;;;;;;2369910;53;21439;-77
2021/12/29 03:45:04;;;;;;;6.10;1.50;;;13.10;75.10;;;;;;2319593;54;21067;-78
2021/12/29 03:47:32;;;;;;;6.03;1.58;;;13.00;75.00;;;;;;2341839;53;20917;-78
2021/12/29 03:49:58;;;;;;;8.93;1.55;;;13.00;74.80;;;;;;2395171;53;21079;-77
2021/12/29 03:52:26;;;;;;;9.02;1.80;;;13.00;74.80;;;;;;2551463;52;20986;-76
2021/12/29 03:54:52;;;;;;;7.40;1.30;;;13.00;74.90;;;;;;2529463;53;20972;-77
2021/12/29 03:57:18;;;;;;;8.75;1.33;;;13.00;74.90;;;;;;2429965;53;21391;-77
2021/12/29 03:59:47;;;;;;;7.10;1.40;;;13.00;74.80;;;;;;2358130;53;21391;-77
2021/12/29 04:02:13;;;;;;;4.53;0.82;;;13.00;74.90;;;;;;2314105;54;20984;-77
2021/12/29 04:04:40;;;;;;;7.90;1.12;;;12.90;75.60;;;;;;2332218;53;21028;-77
2021/12/29 04:07:06;;;;;;;8.00;1.42;;;12.90;74.90;;;;;;2332058;53;21986;-76
2021/12/29 04:09:32;;;;;;;4.00;0.93;;;12.90;74.90;;;;;;2343600;53;21518;-77
2021/12/29 04:11:59;;;;;;;6.32;1.00;;;12.90;74.90;;;;;;2342661;53;21097;-77
2021/12/29 04:14:26;;;;;;;7.45;1.55;;;12.90;75.00;;;;;;2346382;53;21033;-76
2021/12/29 04:16:56;;;;;;;7.82;1.40;;;12.90;75.00;;;;;;2384498;53;21004;-77
2021/12/29 04:19:40;;;;;;;5.05;1.17;;;12.90;74.90;;;;;;2319754;54;20933;-77
2021/12/29 04:22:10;;;;;;;7.05;1.20;;;12.90;75.00;;;;;;2500749;52;21479;-77
2021/12/29 04:24:36;;;;;;;6.10;1.40;;;12.80;74.80;;;;;;2398271;53;21017;-77
2021/12/29 04:27:06;;;;;;;3.10;0.82;;;12.80;74.90;;;;;;2579195;53;20921;-77
2021/12/29 04:29:32;;;;;;;3.97;1.05;;;12.80;74.90;;;;;;2586474;53;21016;-76
2021/12/29 04:31:59;;;;;;;7.37;1.33;;;12.80;75.00;;;;;;2567068;53;20941;-77
2021/12/29 04:34:25;;;;;;;5.25;0.95;;;12.80;75.00;;;;;;2336794;54;20948;-76
2021/12/29 04:36:52;;;;;;;4.97;1.00;;;12.80;75.10;;;;;;2342146;54;20917;-76
2021/12/29 04:39:18;;;;;;;6.28;1.42;;;12.80;75.10;;;;;;2588169;53;20976;-76
2021/12/29 04:41:44;;;;;;;6.47;1.27;;;12.80;75.00;;;;;;2367439;53;20998;-76
2021/12/29 04:44:11;;;;;;;7.25;1.35;;;12.80;75.00;;;;;;2344514;54;20954;-77
2021/12/29 04:46:39;;;;;;;6.57;1.27;;;12.80;75.00;;;;;;2372431;52;20954;-77
2021/12/29 04:49:11;;;;;;;5.35;1.00;;;12.80;75.00;;;;;;2370068;53;21022;-77
2021/12/29 04:51:43;;;;;;;6.87;1.48;;;12.70;74.90;;;;;;2334393;54;21467;-77
2021/12/29 04:54:10;;;;;;;5.68;1.10;;;12.70;74.90;;;;;;2354717;53;20922;-77
2021/12/29 04:56:36;;;;;;;4.70;1.05;;;12.70;75.00;;;;;;2370550;53;21398;-77
2021/12/29 04:59:03;;;;;;;4.40;0.90;;;12.70;74.90;;;;;;2619982;52;21363;-76
2021/12/29 05:01:29;;;;;;;5.65;1.25;;;12.70;75.00;;;;;;2349339;53;21393;-77
2021/12/29 05:03:56;;;;;;;7.60;1.10;;;12.70;75.10;;;;;;2373248;53;20966;-77
2021/12/29 05:08:58;;;;;;;8.00;1.00;;;12.70;75.00;;;;;;2623062;52;20922;-76
2021/12/29 05:11:24;;;;;;;4.72;0.85;;;12.70;75.10;;;;;;2384541;52;21452;-76
2021/12/29 05:13:50;;;;;;;5.00;1.10;;;12.70;75.20;;;;;;2355818;53;20947;-76
2021/12/29 05:16:18;;;;;;;10.05;1.10;;;12.70;75.90;;;;;;2495526;53;20982;-77
2021/12/29 05:18:45;;;;;;;3.90;0.70;;;12.70;75.30;;;;;;2350027;54;20982;-77
2021/12/29 05:21:12;;;;;;;6.28;0.98;;;12.70;75.30;;;;;;2350172;53;21039;-77
2021/12/29 05:23:38;;;;;;;9.75;1.05;;;12.70;75.40;;;;;;2447840;52;21010;-77
2021/12/29 05:26:05;;;;;;;10.27;1.50;;;12.70;75.30;;;;;;2363385;53;20984;-76
2021/12/29 05:28:31;;;;;;;5.40;0.93;;;12.70;75.30;;;;;;2415860;53;21344;-76
2021/12/29 05:31:01;;;;;;;5.05;1.15;;;12.70;75.30;;;;;;2384755;52;21477;-76
2021/12/29 05:33:27;;;;;;;4.03;1.42;;;12.70;75.30;;;;;;2364516;53;21019;-77
2021/12/29 05:35:53;;;;;;;9.02;2.15;;;12.70;75.20;;;;;;2366164;54;21084;-76
2021/12/29 05:38:20;;;;;;;5.12;1.33;;;12.70;75.30;;;;;;2366780;53;21051;-76
2021/12/29 05:40:48;;;;;;;5.72;1.12;;;12.70;75.30;;;;;;2350996;53;21485;-77
2021/12/29 05:43:14;;;;;;;5.93;1.05;;;12.70;75.30;;;;;;2368325;53;21001;-77
2021/12/29 05:45:40;;;;;;;5.78;1.17;;;12.70;75.40;;;;;;2368247;53;21537;-76
2021/12/29 05:48:07;;;;;;;7.75;1.27;;;12.70;75.50;;;;;;2369150;53;20996;-77
2021/12/29 05:50:33;;;;;;;5.78;1.30;;;12.70;75.40;;;;;;2420777;52;21025;-76
2021/12/29 05:53:00;;;;;;;6.15;1.15;;;12.70;75.40;;;;;;2410231;53;20967;-76
2021/12/29 05:55:26;;;;;;;6.68;1.35;;;12.70;75.40;;;;;;2481969;52;20973;-77
2021/12/29 05:57:52;;;;;;;5.18;1.23;;;12.70;75.60;;;;;;2508700;52;20989;-78
2021/12/29 06:00:19;;;;;;;5.43;1.15;;;12.70;75.60;;;;;;2468959;52;20994;-76
2021/12/29 06:02:45;;;;;;;7.75;1.55;;;12.70;75.60;;;;;;2370317;52;20950;-77
2021/12/29 06:05:13;;;;;;;8.95;1.30;;;12.70;75.60;;;;;;2459363;52;21617;-77
2021/12/29 06:07:39;;;;;;;4.55;1.00;;;12.70;75.50;;;;;;2357767;53;20955;-76
2021/12/29 06:10:06;;;;;;;5.22;1.20;;;12.70;75.50;;;;;;2359514;53;20942;-76
2021/12/29 06:12:34;;;;;;;7.97;1.33;;;12.70;75.60;;;;;;2368344;53;20925;-76
2021/12/29 06:15:00;;;;;;;6.95;1.65;;;12.70;75.50;;;;;;2381404;52;20983;-76
2021/12/29 06:17:27;;;;;;;6.97;1.27;;;12.70;75.50;;;;;;2337689;54;21034;-76
2021/12/29 06:19:53;;;;;;;5.43;1.20;;;12.70;75.50;;;;;;2368745;53;21467;-76
2021/12/29 06:22:19;;;;;;;7.70;1.33;;;12.70;75.50;;;;;;2420080;52;21017;-76
2021/12/29 06:24:51;;;;;;;6.12;1.25;;;12.70;75.60;;;;;;2368879;53;21278;-77
2021/12/29 06:27:28;;;;;;;5.97;1.20;;;12.70;75.50;;;;;;2414423;52;21092;-76
2021/12/29 06:29:54;;;;;;;6.97;1.48;;;12.70;75.10;;;;;;2451232;52;21507;-77
2021/12/29 06:32:20;;;;;;;6.53;1.60;;;12.70;75.30;;;;;;2350171;53;21669;-76
2021/12/29 06:34:46;;;;;;;5.00;1.60;;;12.70;75.30;;;;;;2348905;54;20978;-76
2021/12/29 06:37:13;;;;;;;6.60;1.92;;;12.70;75.20;;;;;;2362881;53;20959;-77
2021/12/29 06:39:40;;;;;;;7.37;1.98;;;12.70;75.20;;;;;;2573362;53;21207;-77
2021/12/29 06:42:08;;;;;;;5.97;1.50;;;12.70;75.90;;;;;;2356509;53;20963;-77
2021/12/29 06:44:34;;;;;;;6.32;1.30;;;12.70;75.90;;;;;;2381112;53;20954;-76
2021/12/29 06:47:01;;;;;;;6.37;1.20;;;12.70;75.30;;;;;;2368314;53;21014;-76
2021/12/29 06:49:27;;;;;;;7.57;1.02;;;12.70;75.40;;;;;;2367985;53;20930;-77
2021/12/29 06:51:55;;;;;;;6.87;1.30;;;12.70;75.40;;;;;;2409626;52;21488;-77
2021/12/29 06:54:24;;;;;;;7.15;1.40;;;12.70;75.40;;;;;;2363187;53;21431;-76
2021/12/29 06:56:50;;;;;;;6.30;1.17;;;12.60;75.30;;;;;;2347747;53;21438;-76
2021/12/29 06:59:16;;;;;;;5.55;1.37;;;12.70;75.50;;;;;;2357104;53;20988;-77
2021/12/29 07:01:42;;;;;;;6.32;1.20;;;12.60;75.40;;;;;;2359977;53;20982;-76
2021/12/29 07:04:09;;;;;;;4.10;1.02;;;12.70;75.60;;;;;;2371188;52;21019;-76
2021/12/29 07:06:35;;;;;;;7.43;1.10;;;12.70;75.60;;;;;;2544790;52;20957;-76
2021/12/29 07:09:01;;;;;;;4.97;1.15;;;12.70;75.80;;;;;;2394530;52;20932;-77
2021/12/29 07:11:28;;;;;;;5.93;1.35;;;12.70;75.70;;;;;;2548966;52;21448;-76
2021/12/29 07:13:55;;;;;;;7.82;1.55;;;12.70;75.90;;;;;;2430370;52;20934;-76
2021/12/29 07:16:21;;;;;;;7.00;1.20;;;12.70;75.60;;;;;;2380722;52;20941;-76
2021/12/29 07:18:48;;;;;;;6.68;1.00;;;12.70;75.70;;;;;;2352053;52;20953;-76
2021/12/29 07:21:15;;;;;;;5.37;1.10;;;12.70;75.70;;;;;;2365295;53;20995;-76
2021/12/29 07:23:41;;;;;;;5.53;1.25;;;12.70;75.70;;;;;;2333857;53;21041;-76
2021/12/29 07:26:07;;;;;;;7.90;1.83;;;12.70;75.60;;;;;;2368727;53;20946;-77
2021/12/29 07:28:34;;;;;;;6.95;1.70;;;12.70;75.60;;;;;;2441726;52;20926;-76
2021/12/29 07:31:00;;;;;;;7.85;2.15;;;12.70;75.60;;;;;;2345948;53;20918;-76
2021/12/29 07:33:28;;;;;;;7.90;1.92;;;12.70;75.60;;;;;;2462289;52;20947;-77
2021/12/29 07:35:57;;;;;;;5.12;1.58;;;12.70;75.60;;;;;;2362148;53;20902;-76
2021/12/29 07:38:23;;;;;;;5.25;1.77;;;12.70;75.60;;;;;;2368454;53;20918;-76
2021/12/29 07:40:49;;;;;;;7.55;1.62;;;12.70;75.60;;;;;;2452142;52;21017;-77
2021/12/29 07:43:16;;;;;;;10.38;1.80;;;12.70;75.60;;;;;;2363288;53;20954;-77
2021/12/29 07:45:42;;;;;;;6.72;1.55;;;12.70;75.60;;;;;;2368655;53;20934;-75
2021/12/29 07:48:09;;;;;;;6.70;1.70;;;12.70;75.60;;;;;;2368622;53;20930;-76
2021/12/29 07:50:36;;;;;;;6.43;1.10;;;12.70;75.60;;;;;;2368663;53;20977;-77
2021/12/29 07:53:06;;;;;;;4.68;1.12;;;12.70;75.70;;;;;;2508708;52;20922;-76
2021/12/29 07:55:32;;;;;;;3.05;1.00;;;12.70;75.60;;;;;;2353064;53;21406;-77
2021/12/29 07:57:59;;;;;;;4.60;1.27;;;12.70;75.60;;;;;;2360996;53;20967;-76
2021/12/29 08:00:25;;;;;;;6.18;1.67;;;12.70;75.70;;;;;;2430770;53;21486;-77
2021/12/29 08:02:51;;;;;;;9.27;2.30;;;12.80;75.90;;;;;;2351388;53;21031;-77
2021/12/29 08:05:18;;;;;;;6.47;1.95;;;12.80;75.90;;;;;;2468191;53;20935;-77
2021/12/29 08:07:46;;;;;;;6.30;1.85;;;12.80;76.00;;;;;;2368479;53;21411;-77
2021/12/29 08:10:12;;;;;;;5.80;1.90;;;12.80;76.00;;;;;;2368015;53;20986;-77
2021/12/29 08:12:38;;;;;;;4.95;1.55;;;12.80;76.10;;;;;;2619757;52;21013;-77
2021/12/29 08:15:05;;;;;;;7.80;1.73;;;12.80;76.10;;;;;;2349163;53;21005;-77
2021/12/29 08:17:32;;;;;;;7.97;1.80;;;12.80;76.10;;;;;;2528911;52;22001;-76
2021/12/29 08:20:02;;;;;;;8.40;1.60;;;12.90;76.20;;;;;;2368464;53;20965;-76
2021/12/29 08:22:29;;;;;;;4.75;1.20;;;12.90;76.10;;;;;;2615820;52;21021;-76
2021/12/29 08:24:56;;;;;;;6.50;1.20;;;12.90;76.20;;;;;;2348276;53;21047;-77
2021/12/29 08:27:22;;;;;;;7.95;1.45;;;12.90;76.20;;;;;;2368349;53;21423;-76
2021/12/29 08:29:49;;;;;;;6.07;1.40;;;13.00;76.30;;;;;;2368864;53;21459;-76
2021/12/29 08:32:15;;;;;;;3.58;0.93;;;13.00;76.30;;;;;;2375024;52;21656;-77
2021/12/29 08:34:41;;;;;;;8.43;2.20;;;13.00;76.30;;;;;;2614747;52;20993;-77
2021/12/29 08:37:07;;;;;;;5.43;1.27;;;13.10;76.40;;;;;;2355406;53;20931;-76
2021/12/29 08:39:34;;;;;;;4.78;1.08;;;13.10;76.20;;;;;;2400793;53;21049;-77
2021/12/29 08:42:00;;;;;;;8.32;1.42;;;13.10;76.20;;;;;;2518126;52;21013;-75
2021/12/29 08:44:26;;;;;;;6.30;1.20;;;13.10;76.10;;;;;;2389746;52;20940;-77
2021/12/29 08:46:52;;;;;;;9.50;1.40;;;13.20;76.10;;;;;;2533449;52;21035;-77
2021/12/29 08:49:19;;;;;;;4.50;1.20;;;13.10;76.00;;;;;;2339834;53;20985;-77
2021/12/29 08:51:45;;;;;;;7.18;1.23;;;13.20;76.10;;;;;;2436878;53;21996;-76
2021/12/29 08:54:12;;;;;;;8.85;1.83;;;13.20;76.00;;;;;;2473373;53;20988;-77
2021/12/29 08:56:38;;;;;;;8.35;1.60;;;13.20;75.90;;;;;;2369495;53;20961;-75
2021/12/29 08:59:04;;;;;;;7.20;1.30;;;13.20;75.90;;;;;;2356754;53;20963;-76
2021/12/29 09:01:31;;;;;;;6.72;1.30;;;13.20;76.50;;;;;;2375992;53;20929;-76
2021/12/29 09:03:57;;;;;;;7.47;1.85;;;13.20;75.90;;;;;;2431529;53;21014;-75
2021/12/29 09:06:23;;;;;;;7.75;1.90;;;13.30;75.90;;;;;;2374989;52;20990;-76
2021/12/29 09:08:49;;;;;;;7.82;1.75;;;13.20;75.80;;;;;;2597007;52;20957;-76
2021/12/29 09:11:18;;;;;;;8.20;1.45;;;13.20;75.70;;;;;;2340421;53;20937;-77
2021/12/29 09:13:57;;;;;;;6.72;1.50;;;13.20;75.60;;;;;;2376614;53;20935;-77
2021/12/29 09:16:23;;;;;;;5.15;1.40;;;13.30;75.50;;;;;;2385593;53;21369;-77
2021/12/29 09:18:49;;;;;;;6.12;1.00;;;13.30;76.00;;;;;;2368791;53;21035;-76
2021/12/29 09:21:18;;;;;;;6.68;1.40;;;13.30;76.00;;;;;;2349565;53;21456;-77
2021/12/29 09:23:44;;;;;;;7.18;1.37;;;13.30;76.00;;;;;;2391585;53;21007;-76
2021/12/29 09:26:12;;;;;;;7.37;1.40;;;13.30;76.00;;;;;;2345511;53;21140;-76
2021/12/29 09:28:38;;;;;;;4.28;0.98;;;13.30;76.00;;;;;;2352860;53;21034;-77
2021/12/29 09:31:04;;;;;;;8.00;1.73;;;13.30;76.10;;;;;;2448144;52;20978;-76
2021/12/29 09:33:31;;;;;;;5.95;1.52;;;13.30;76.10;;;;;;2367824;53;21493;-76
2021/12/29 09:36:01;;;;;;;8.63;2.25;;;13.30;76.00;;;;;;2344578;53;20927;-76
2021/12/29 09:38:27;;;;;;;8.07;1.90;;;13.30;76.20;;;;;;2489387;53;21416;-76
2021/12/29 09:40:54;;;;;;;9.02;1.62;;;13.40;76.20;;;;;;2451789;52;21568;-76
2021/12/29 09:43:22;;;;;;;6.85;2.00;;;13.40;76.20;;;;;;2367562;53;21762;-77
2021/12/29 09:45:48;;;;;;;10.75;1.40;;;13.40;76.20;;;;;;2375001;52;21038;-77
2021/12/29 09:48:14;;;;;;;7.32;1.67;;;13.40;76.30;;;;;;2337998;54;20931;-76
2021/12/29 09:50:40;;;;;;;8.48;1.50;;;13.40;76.20;;;;;;2358931;53;21041;-77
2021/12/29 09:53:07;;;;;;;10.82;1.65;;;13.40;76.00;;;;;;2347356;53;21413;-76
2021/12/29 09:55:33;;;;;;;9.25;2.20;;;13.40;76.00;;;;;;2368451;53;21490;-77
2021/12/29 09:58:00;;;;;;;11.23;1.62;;;13.40;76.00;;;;;;2348458;54;21374;-77
2021/12/29 10:00:40;;;;;;;8.93;1.50;;;13.40;76.80;;;;;;2362206;53;20995;-77
2021/12/29 10:03:09;;;;;;;5.82;1.20;;;13.40;75.60;;;;;;2587196;53;21322;-77
2021/12/29 10:05:36;;;;;;;12.00;1.75;;;13.40;76.10;;;;;;2364312;53;20998;-77
2021/12/29 10:08:09;;;;;;;5.55;1.60;;;13.40;76.10;;;;;;2369758;53;21001;-76
2021/12/29 10:10:36;;;;;;;;;;;13.40;76.50;;;;;;2412320;52;21458;-75
2021/12/29 10:13:02;;;;;;;7.50;1.70;;;13.50;74.80;;;;;;2367828;53;20419;-76
2021/12/29 10:15:36;;;;;;;10.60;2.60;;;13.50;75.90;;;;;;2352410;53;20981;-76
2021/12/29 10:18:22;;;;;;;6.20;1.83;;;13.50;75.90;;;;;;2505446;53;20973;-77
2021/12/29 10:20:57;;;;;;;6.75;1.77;;;13.50;75.90;;;;;;2344935;53;21587;-76
2021/12/29 10:23:29;;;;;;;8.77;2.12;;;13.40;75.80;;;;;;2380725;53;21051;-76
2021/12/29 10:26:03;;;;;;;9.93;2.35;;;13.50;76.00;;;;;;2320635;54;20961;-76
2021/12/29 10:28:30;;;;;;;9.43;1.83;;;13.50;76.00;;;;;;2391603;53;21017;-76
2021/12/29 10:31:04;;;;;;;7.65;1.65;;;13.40;75.90;;;;;;2345579;53;20993;-76
2021/12/29 10:33:35;;;;;;;5.78;1.50;;;13.50;75.70;;;;;;2321289;53;21040;-76
2021/12/29 10:36:22;;;;;;;6.10;1.37;;;13.50;75.60;;;;;;2351332;54;20944;-76
2021/12/29 10:41:32;;;;;;;6.62;1.55;;;13.40;74.70;;;;;;2444144;52;21438;-76
2021/12/29 10:44:02;;;;;;;5.57;1.30;;;13.40;74.50;;;;;;2432226;52;21032;-75
2021/12/29 10:46:31;;;;;;;4.32;1.30;;;13.40;74.30;;;;;;2536395;52;21030;-76
2021/12/29 10:48:59;;;;;;;6.73;1.50;;;13.30;74.10;;;;;;2354905;52;2249829;-76
2021/12/29 10:51:35;;;;;;;5.35;1.12;;;13.20;74.00;;;;;;2436991;52;21007;-76
2021/12/29 10:54:20;;;;;;;5.25;1.30;;;13.20;73.90;;;;;;2356550;53;21241;-76
2021/12/29 10:56:57;;;;;;;5.70;1.30;;;13.10;73.50;;;;;;2352957;52;21417;-75
2021/12/29 10:59:29;;;;;;;5.25;1.08;;;13.00;73.60;;;;;;2368901;53;20990;-75
2021/12/29 11:01:55;;;;;;;5.60;1.20;;;12.90;73.80;;;;;;2368964;53;20961;-76
2021/12/29 11:04:22;;;;;;;5.60;0.90;;;12.90;73.90;;;;;;2369103;53;20930;-76
2021/12/29 11:06:49;;;;;;;5.35;1.20;;;12.80;74.00;;;;;;2353669;53;21278;-76
2021/12/29 11:09:40;;;;;;;3.33;0.93;;;12.70;74.00;;;;;;2364393;53;21006;-77
2021/12/29 11:12:12;;;;;;;4.37;0.90;;;12.70;74.10;;;;;;2369615;53;20965;-76
2021/12/29 11:14:42;;;;;;;;;;;12.60;74.00;;;;;;2371963;53;21376;-76
2021/12/29 11:17:22;;;;;;;2.58;0.70;;;12.60;73.80;;;;;;2368940;53;20365;-76
2021/12/29 11:19:57;;;;;;;4.15;0.90;;;12.60;74.10;;;;;;2368461;53;21465;-76
2021/12/29 11:22:28;;;;;;;6.47;0.75;;;12.50;74.30;;;;;;2348244;53;20959;-76
2021/12/29 11:24:59;;;;;;;2.50;0.70;;;12.50;74.60;;;;;;2555489;52;20970;-76
2021/12/29 11:27:30;;;;;;;2.50;0.80;;;12.40;74.80;;;;;;2404385;52;21299;-76
2021/12/29 11:29:58;;;;;;;2.45;0.70;;;12.40;74.90;;;;;;2355969;53;20954;-75
2021/12/29 11:32:29;;;;;;;5.15;1.45;;;12.40;74.90;;;;;;2348079;53;20918;-76
2021/12/29 11:35:19;;;;;;;3.67;1.37;;;12.30;74.90;;;;;;2563130;52;20942;-76
2021/12/29 11:37:50;;;;;;;2.12;0.80;;;12.30;75.00;;;;;;2317007;54;20964;-76
2021/12/29 11:40:19;;;;;;;3.25;1.02;;;12.40;75.50;;;;;;2323642;54;21690;-76
2021/12/29 11:42:47;;;;;;;2.10;0.73;;;12.30;75.60;;;;;;2452481;54;20961;-75
2021/12/29 11:45:16;;;;;;;3.90;1.17;;;12.40;76.00;;;;;;2455489;53;20985;-76
2021/12/29 11:47:43;;;;;;;3.30;0.75;;;12.40;76.20;;;;;;2341747;53;20953;-77
2021/12/29 11:50:12;;;;;;;2.28;0.77;;;12.40;76.20;;;;;;2361743;53;21549;-76
2021/12/29 11:55:19;;;;;;;2.10;0.68;;;12.40;76.20;;;;;;2356841;53;21663;-77
2021/12/29 11:57:48;;;;;;;1.42;0.40;;;12.40;76.30;;;;;;2349087;54;21459;-77
2021/12/29 12:00:19;;;;;;;1.90;0.52;;;12.50;76.40;;;;;;2368222;53;21017;-77
2021/12/29 12:02:46;;;;;;;1.42;0.40;;;12.60;76.30;;;;;;2344083;53;21023;-77
2021/12/29 12:05:14;;;;;;;1.70;0.40;;;12.60;77.10;;;;;;2544782;53;21004;-76
2021/12/29 12:07:41;;;;;;;2.10;0.50;;;12.60;76.20;;;;;;2578551;53;21010;-77
2021/12/29 12:10:12;;;;;;;3.30;0.60;;;12.60;76.30;;;;;;2340059;53;21433;-76
2021/12/29 12:12:45;;;;;;;1.60;0.60;;;12.60;76.20;;;;;;2340286;53;21319;-77
2021/12/29 12:15:12;;;;;;;2.58;0.60;;;12.60;76.10;;;;;;2357857;53;21068;-78
2021/12/29 12:17:39;;;;;;;1.75;0.47;;;12.60;76.00;;;;;;2340625;53;21940;-76
2021/12/29 12:20:15;;;;;;;1.75;0.60;;;12.70;76.10;;;;;;2340704;53;21000;-76
2021/12/29 12:22:50;;;;;;;1.25;0.50;;;12.70;76.00;;;;;;2340635;53;20980;-76
2021/12/29 12:25:31;;;;;;;2.12;0.68;;;12.70;76.00;;;;;;2505203;53;20937;-76
2021/12/29 12:28:01;;;;;;;3.33;0.70;;;12.70;75.70;;;;;;2340722;53;21698;-77
2021/12/29 12:30:42;;;;;;;1.92;0.70;;;12.70;75.90;;;;;;2476123;53;20945;-76
2021/12/29 12:33:17;;;;;;;1.83;0.73;;;12.70;75.60;;;;;;2356233;53;20937;-76
2021/12/29 12:35:46;;;;;;;1.92;0.55;;;12.80;75.90;;;;;;2353701;53;21259;-77
2021/12/29 12:38:35;;;;;;;2.58;0.60;;;12.80;75.80;;;;;;2340274;53;20966;-76
2021/12/29 12:41:14;;;;;;;2.33;0.70;;;12.80;75.50;;;;;;2345354;53;20952;-76
2021/12/29 12:44:00;;;;;;;2.30;0.52;;;12.80;75.90;;;;;;2578555;52;22150;-76
2021/12/29 12:46:48;;;;;;;1.95;0.60;;;12.80;75.70;;;;;;2430487;53;21008;-76
2021/12/29 12:49:28;;;;;;;2.00;0.47;;;12.80;75.70;;;;;;2348015;53;21008;-76
2021/12/29 12:52:13;;;;;;;2.47;0.60;;;12.80;75.70;;;;;;2381931;53;21958;-76
2021/12/29 12:54:52;;;;;;;3.12;0.70;;;12.80;75.50;;;;;;2364776;53;20983;-76
2021/12/29 12:58:19;;;;;;;2.55;0.60;;;12.80;75.90;;;;;;2393713;53;21392;-76
2021/12/29 13:00:50;;;;;;;2.95;1.05;;;12.80;75.40;;;;;;2395590;52;21006;-77
2021/12/29 13:03:18;;;;;;;3.30;1.20;;;12.90;76.20;;;;;;2471788;52;20919;-77